createdAt,value
2023-06-04T00:03:43.279Z,100165.22
2023-06-04T00:08:45.267Z,100161.31
2023-06-04T00:13:47.049Z,100164.91
2023-06-04T00:18:48.721Z,100158.16
2023-06-04T00:23:50.654Z,100154.84
2023-06-04T00:28:52.340Z,100148.75
2023-06-04T00:33:54.095Z,100150.03
2023-06-04T00:38:55.824Z,100144.31
2023-06-04T00:43:57.707Z,100138.88
2023-06-04T00:48:59.935Z,100139.88
2023-06-04T00:54:09.817Z,100134.41
2023-06-04T00:59:12.065Z,100129.91
2023-06-04T01:04:22.067Z,100144.84
2023-06-04T01:09:24.154Z,100136.34
2023-06-04T01:14:27.048Z,100130.22
2023-06-04T01:19:45.514Z,100121.03
2023-06-04T01:24:54.109Z,100129.50
2023-06-04T01:29:58.073Z,100131.50
2023-06-04T01:35:00.632Z,100123.09
2023-06-04T01:40:02.377Z,100124.94
2023-06-04T01:45:04.545Z,100114.22
2023-06-04T01:50:10.390Z,100124.63
2023-06-04T01:55:15.462Z,100121.69
2023-06-04T02:00:17.621Z,100130.97
2023-06-04T02:05:19.567Z,100124.22
2023-06-04T02:10:21.705Z,100119.84
2023-06-04T02:15:24.831Z,100123.66
2023-06-04T02:20:28.144Z,100131.50
2023-06-04T02:25:30.158Z,100122.94
2023-06-04T02:30:32.929Z,100124.84
2023-06-04T02:35:34.586Z,100128.63
2023-06-04T02:40:36.252Z,100128.78
2023-06-04T02:45:37.988Z,100137.91
2023-06-04T02:50:40.420Z,100135.28
2023-06-04T02:55:42.918Z,100144.63
2023-06-04T03:00:44.645Z,100135.34
2023-06-04T03:05:47.461Z,100138.13
2023-06-04T03:10:49.108Z,100141.09
2023-06-04T03:15:50.802Z,100145.53
2023-06-04T03:20:52.531Z,100151.06
2023-06-04T03:25:54.215Z,100154.69
2023-06-04T03:30:56.701Z,100149.84
2023-06-04T03:36:00.912Z,100149.50
2023-06-04T03:41:02.701Z,100152.72
2023-06-04T03:46:04.506Z,100160.34
2023-06-04T03:51:07.345Z,100164.16
2023-06-04T03:56:09.879Z,100158.22
2023-06-04T04:01:12.065Z,100163.06
2023-06-04T04:06:13.866Z,100172.81
2023-06-04T04:11:17.100Z,100179.03
2023-06-04T04:16:19.056Z,100177.91
2023-06-04T04:21:22.111Z,100181.53
2023-06-04T04:26:28.577Z,100184.28
2023-06-04T04:31:32.163Z,100177.13
2023-06-04T04:36:36.088Z,100182.91
2023-06-04T04:41:39.148Z,100179.22
2023-06-04T04:46:41.290Z,100182.78
2023-06-04T04:51:43.115Z,100184.00
2023-06-04T04:56:45.128Z,100185.28
2023-06-04T05:01:47.290Z,100182.53
2023-06-04T05:06:49.175Z,100183.59
2023-06-04T05:11:51.128Z,100193.91
2023-06-04T05:16:53.016Z,100181.47
2023-06-04T05:21:56.139Z,100171.78
2023-06-04T05:26:58.440Z,100183.91
2023-06-04T05:32:01.626Z,100188.66
2023-06-04T05:37:05.660Z,100188.28
2023-06-04T05:42:08.042Z,100197.84
2023-06-04T05:47:10.603Z,100203.91
2023-06-04T05:52:13.183Z,100194.25
2023-06-04T05:57:17.022Z,100195.88
2023-06-04T06:02:18.996Z,100202.75
2023-06-04T06:07:21.241Z,100200.84
2023-06-04T06:12:23.145Z,100195.91
2023-06-04T06:17:25.242Z,100206.06
2023-06-04T06:22:28.425Z,100203.31
2023-06-04T06:27:30.338Z,100205.81
2023-06-04T06:32:32.257Z,100210.78
2023-06-04T06:37:33.986Z,100218.69
2023-06-04T06:42:35.754Z,100218.91
2023-06-04T06:47:37.432Z,100222.59
2023-06-04T06:52:39.845Z,100222.59
2023-06-04T06:57:41.668Z,100214.47
2023-06-04T07:02:43.577Z,100222.56
2023-06-04T07:07:45.453Z,100228.66
2023-06-04T07:12:47.136Z,100228.50
2023-06-04T07:17:49.466Z,100225.81
2023-06-04T07:22:51.249Z,100232.09
2023-06-04T07:27:52.945Z,100217.25
2023-06-04T07:32:54.701Z,100217.81
2023-06-04T07:37:56.396Z,100215.41
2023-06-04T07:42:58.086Z,100206.94
2023-06-04T07:47:59.876Z,100200.94
2023-06-04T07:53:01.587Z,100202.56
2023-06-04T07:58:05.351Z,100202.59
2023-06-04T08:03:08.204Z,100190.88
2023-06-04T08:08:10.006Z,100198.44
2023-06-04T08:13:11.685Z,100194.72
2023-06-04T08:18:13.353Z,100197.06
2023-06-04T08:23:15.032Z,100191.22
2023-06-04T08:28:16.999Z,100184.44
2023-06-04T08:33:18.767Z,100181.72
2023-06-04T08:38:20.609Z,100184.56
2023-06-04T08:43:22.640Z,100180.19
2023-06-04T08:48:25.963Z,100186.59
2023-06-04T08:53:27.749Z,100187.72
2023-06-04T08:58:34.319Z,100180.63
2023-06-04T09:03:38.388Z,100175.22
2023-06-04T09:08:43.961Z,100179.03
2023-06-04T09:13:48.605Z,100177.06
2023-06-04T09:18:50.906Z,100172.59
2023-06-04T09:23:52.694Z,100184.06
2023-06-04T09:28:56.532Z,100188.78
2023-06-04T09:33:58.184Z,100180.06
2023-06-04T09:39:00.169Z,100174.53
2023-06-04T09:44:05.327Z,100170.44
2023-06-04T09:49:07.428Z,100171.09
2023-06-04T09:54:09.104Z,100169.28
2023-06-04T09:59:11.300Z,100167.72
2023-06-04T10:04:14.672Z,100155.88
2023-06-04T10:09:17.469Z,100164.19
2023-06-04T10:14:41.484Z,100157.44
2023-06-04T10:19:45.063Z,100151.31
2023-06-04T10:24:47.900Z,100149.22
2023-06-04T10:29:51.410Z,100152.97
2023-06-04T10:34:53.136Z,100150.41
2023-06-04T10:39:56.604Z,100145.69
2023-06-04T10:44:58.642Z,100150.63
2023-06-04T10:50:12.600Z,100144.56
2023-06-04T10:55:14.305Z,100149.50
2023-06-04T11:00:17.582Z,100147.63
2023-06-04T11:05:19.790Z,100145.50
2023-06-04T11:10:33.898Z,100139.34
2023-06-04T11:15:49.886Z,100136.00
2023-06-04T11:21:00.950Z,100135.06
2023-06-04T11:26:02.672Z,100136.47
2023-06-04T11:31:05.025Z,100133.41
2023-06-04T11:36:06.777Z,100129.09
2023-06-04T11:41:08.603Z,100121.06
2023-06-04T11:46:10.995Z,100129.34
2023-06-04T11:51:14.029Z,100134.06
2023-06-04T11:56:16.776Z,100131.56
2023-06-04T12:01:19.238Z,100136.94
2023-06-04T12:06:23.849Z,100128.72
2023-06-04T12:11:35.739Z,100118.78
2023-06-04T12:16:37.556Z,100120.94
2023-06-04T12:21:43.206Z,100116.44
2023-06-04T12:26:47.509Z,100124.78
2023-06-04T12:31:51.151Z,100124.03
2023-06-04T12:36:52.873Z,100113.53
2023-06-04T12:41:54.547Z,100122.16
2023-06-04T12:46:56.302Z,100114.91
2023-06-04T12:51:58.428Z,100109.72
2023-06-04T12:57:00.798Z,100100.34
2023-06-04T13:02:02.825Z,100105.59
2023-06-04T13:07:04.590Z,100108.00
2023-06-04T13:12:07.252Z,100101.66
2023-06-04T13:17:21.196Z,100096.88
2023-06-04T13:22:24.059Z,100100.84
2023-06-04T13:27:25.711Z,100087.38
2023-06-04T13:32:27.453Z,100105.63
2023-06-04T13:37:29.240Z,100097.31
2023-06-04T13:42:31.018Z,100097.28
2023-06-04T13:47:33.429Z,100082.72
2023-06-04T13:52:35.225Z,100085.34
2023-06-04T13:57:36.864Z,100086.81
2023-06-04T14:02:38.665Z,100078.84
2023-06-04T14:07:42.901Z,100077.13
2023-06-04T14:12:45.263Z,100066.03
2023-06-04T14:17:48.829Z,100066.84
2023-06-04T14:22:50.587Z,100066.63
2023-06-04T14:27:52.431Z,100065.09
2023-06-04T14:32:54.152Z,100061.41
2023-06-04T14:37:55.968Z,100058.78
2023-06-04T14:42:58.667Z,100055.69
2023-06-04T14:48:13.998Z,100052.31
2023-06-04T14:53:16.873Z,100047.72
2023-06-04T14:58:18.542Z,100045.88
2023-06-04T15:03:20.364Z,100049.94
2023-06-04T15:08:22.184Z,100046.09
2023-06-04T15:13:23.919Z,100045.34
2023-06-04T15:18:25.657Z,100046.50
2023-06-04T15:23:27.411Z,100043.44
2023-06-04T15:28:29.104Z,100040.44
2023-06-04T15:33:30.838Z,100047.00
2023-06-04T15:38:33.798Z,100049.69
2023-06-04T15:43:35.521Z,100055.31
2023-06-04T15:48:37.212Z,100055.13
2023-06-04T15:53:38.945Z,100042.94
2023-06-04T15:58:40.712Z,100042.50
2023-06-04T16:03:42.520Z,100044.47
2023-06-04T16:08:44.246Z,100040.44
2023-06-04T16:13:46.177Z,100044.09
2023-06-04T16:18:48.593Z,100039.28
2023-06-04T16:23:50.258Z,100031.88
2023-06-04T16:28:51.980Z,100029.13
2023-06-04T16:33:53.750Z,100046.25
2023-06-04T16:38:55.505Z,100033.53
2023-06-04T16:43:57.199Z,100031.38
2023-06-04T16:48:58.853Z,100028.63
2023-06-04T16:59:02.124Z,100014.84
2023-06-04T17:04:03.791Z,100016.13
2023-06-04T17:09:05.490Z,100023.91
2023-06-04T17:14:08.428Z,100022.75
2023-06-04T17:19:10.105Z,100014.19
2023-06-04T17:24:12.290Z,100020.44
2023-06-04T17:29:14.102Z,100019.31
2023-06-04T17:34:15.813Z,100022.19
2023-06-04T17:39:17.536Z,100028.91
2023-06-04T17:44:19.188Z,100031.31
2023-06-04T17:49:21.000Z,100031.31
2023-06-04T17:54:22.744Z,100027.16
2023-06-04T17:59:24.419Z,100022.75
2023-06-04T18:04:26.170Z,100030.47
2023-06-04T18:09:28.127Z,100022.97
2023-06-04T18:14:29.795Z,100023.69
2023-06-04T18:19:31.576Z,100028.22
2023-06-04T18:24:37.763Z,100036.34
2023-06-04T18:29:41.133Z,100044.84
2023-06-04T18:34:42.891Z,100048.72
2023-06-04T18:39:44.631Z,100052.59
2023-06-04T18:44:46.399Z,100042.38
2023-06-04T18:49:48.121Z,100056.03
2023-06-04T18:54:49.783Z,100047.63
2023-06-04T18:59:51.495Z,100051.69
2023-06-04T19:04:53.287Z,100055.22
2023-06-04T19:09:55.296Z,100072.03
2023-06-04T19:14:56.971Z,100069.13
2023-06-04T19:19:58.627Z,100074.16
2023-06-04T19:25:00.325Z,100086.88
2023-06-04T19:30:03.369Z,100085.00
2023-06-04T19:35:05.685Z,100079.72
2023-06-04T19:40:08.146Z,100090.66
2023-06-04T19:45:10.262Z,100099.75
2023-06-04T19:50:12.382Z,100101.34
2023-06-04T19:55:14.081Z,100104.75
2023-06-04T20:00:16.389Z,100111.25
2023-06-04T20:05:18.228Z,100118.50
2023-06-04T20:10:19.944Z,100126.56
2023-06-04T20:15:22.351Z,100127.66
2023-06-04T20:20:24.038Z,100125.25
2023-06-04T20:25:25.862Z,100128.84
2023-06-04T20:30:27.547Z,100131.13
2023-06-04T20:35:29.584Z,100130.94
2023-06-04T20:40:31.240Z,100135.50
2023-06-04T20:45:33.037Z,100139.13
2023-06-04T20:50:34.716Z,100144.72
2023-06-04T20:55:36.637Z,100146.56
2023-06-04T21:00:38.277Z,100144.19
2023-06-04T21:05:39.953Z,100145.03
2023-06-04T21:10:41.717Z,100153.38
2023-06-04T21:15:43.690Z,100160.47
2023-06-04T21:20:45.438Z,100157.53
2023-06-04T21:25:47.317Z,100165.97
2023-06-04T21:30:49.044Z,100167.53
2023-06-04T21:35:50.843Z,100161.16
2023-06-04T21:40:52.511Z,100157.69
2023-06-04T21:45:54.171Z,100160.78
2023-06-04T21:50:56.370Z,100162.25
2023-06-04T21:55:58.080Z,100171.13
2023-06-04T22:00:59.758Z,100175.22
2023-06-04T22:06:01.450Z,100178.66
2023-06-04T22:11:03.152Z,100178.47
2023-06-04T22:16:05.559Z,100178.56
2023-06-04T22:21:07.356Z,100179.34
2023-06-04T22:26:10.013Z,100176.56
2023-06-04T22:31:13.822Z,100170.16
2023-06-04T22:36:15.577Z,100170.97
2023-06-04T22:41:17.247Z,100168.78
2023-06-04T22:46:18.967Z,100158.53
2023-06-04T22:51:22.205Z,100165.75
2023-06-04T22:56:26.385Z,100169.28
2023-06-04T23:01:28.225Z,100171.81
2023-06-04T23:06:29.996Z,100164.25
2023-06-04T23:11:31.664Z,100156.66
2023-06-04T23:16:33.397Z,100158.66
2023-06-04T23:21:35.329Z,100164.69
2023-06-04T23:26:37.007Z,100167.44
2023-06-04T23:31:38.726Z,100164.53
2023-06-04T23:36:40.513Z,100163.91
2023-06-04T23:41:42.211Z,100156.38
2023-06-04T23:46:43.856Z,100153.28
2023-06-04T23:51:45.521Z,100154.34
2023-06-04T23:56:47.316Z,100156.41
